sensor_id;sensor_type;location;lat;lon;timestamp;temperature;humidity
10123;DHT22;5101;49.038;8.710;2024-03-07T00:01:35;7.10;99.90
10123;DHT22;5101;49.038;8.710;2024-03-07T00:04:01;7.00;99.90
10123;DHT22;5101;49.038;8.710;2024-03-07T00:06:26;7.00;99.90
10123;DHT22;5101;49.038;8.710;2024-03-07T00:08:52;7.00;99.90
10123;DHT22;5101;49.038;8.710;2024-03-07T00:11:17;7.00;99.90
10123;DHT22;5101;49.038;8.710;2024-03-07T00:13:43;7.00;99.90
10123;DHT22;5101;49.038;8.710;2024-03-07T00:16:09;7.00;99.90
10123;DHT22;5101;49.038;8.710;2024-03-07T00:18:36;7.00;99.90
10123;DHT22;5101;49.038;8.710;2024-03-07T00:21:02;6.90;99.90
10123;DHT22;5101;49.038;8.710;2024-03-07T00:23:28;6.90;99.90
10123;DHT22;5101;49.038;8.710;2024-03-07T00:25:54;6.90;99.90
10123;DHT22;5101;49.038;8.710;2024-03-07T00:28:19;6.90;99.90
10123;DHT22;5101;49.038;8.710;2024-03-07T00:30:45;6.90;99.90
10123;DHT22;5101;49.038;8.710;2024-03-07T00:33:11;6.90;99.90
10123;DHT22;5101;49.038;8.710;2024-03-07T00:35:37;6.90;99.90
10123;DHT22;5101;49.038;8.710;2024-03-07T00:38:03;6.90;99.90
10123;DHT22;5101;49.038;8.710;2024-03-07T00:40:29;6.90;99.90
10123;DHT22;5101;49.038;8.710;2024-03-07T00:42:54;6.90;99.90
10123;DHT22;5101;49.038;8.710;2024-03-07T00:45:20;6.90;99.90
10123;DHT22;5101;49.038;8.710;2024-03-07T00:47:45;6.80;99.90
10123;DHT22;5101;49.038;8.710;2024-03-07T00:50:11;6.80;99.90
10123;DHT22;5101;49.038;8.710;2024-03-07T00:52:37;6.80;99.90
10123;DHT22;5101;49.038;8.710;2024-03-07T00:55:03;6.80;99.90
10123;DHT22;5101;49.038;8.710;2024-03-07T00:57:29;6.80;99.90
10123;DHT22;5101;49.038;8.710;2024-03-07T00:59:54;6.80;99.90
10123;DHT22;5101;49.038;8.710;2024-03-07T01:02:21;6.80;99.90
10123;DHT22;5101;49.038;8.710;2024-03-07T01:04:47;6.80;99.90
10123;DHT22;5101;49.038;8.710;2024-03-07T01:07:13;6.70;99.90
10123;DHT22;5101;49.038;8.710;2024-03-07T01:09:39;6.70;99.90
10123;DHT22;5101;49.038;8.710;2024-03-07T01:12:05;6.80;99.90
10123;DHT22;5101;49.038;8.710;2024-03-07T01:14:31;6.70;99.90
10123;DHT22;5101;49.038;8.710;2024-03-07T01:16:56;6.60;99.90
10123;DHT22;5101;49.038;8.710;2024-03-07T01:19:22;6.70;99.90
10123;DHT22;5101;49.038;8.710;2024-03-07T01:21:48;6.60;99.90
10123;DHT22;5101;49.038;8.710;2024-03-07T01:24:13;6.60;99.90
10123;DHT22;5101;49.038;8.710;2024-03-07T01:26:43;6.50;99.90
10123;DHT22;5101;49.038;8.710;2024-03-07T01:29:09;6.60;99.90
10123;DHT22;5101;49.038;8.710;2024-03-07T01:31:34;6.50;99.90
10123;DHT22;5101;49.038;8.710;2024-03-07T01:34:00;6.50;99.90
10123;DHT22;5101;49.038;8.710;2024-03-07T01:36:25;6.50;99.90
10123;DHT22;5101;49.038;8.710;2024-03-07T01:38:50;6.40;99.90
10123;DHT22;5101;49.038;8.710;2024-03-07T01:41:16;6.40;99.90
10123;DHT22;5101;49.038;8.710;2024-03-07T01:43:42;6.40;99.90
10123;DHT22;5101;49.038;8.710;2024-03-07T01:46:08;6.50;99.90
10123;DHT22;5101;49.038;8.710;2024-03-07T01:48:35;6.40;99.90
10123;DHT22;5101;49.038;8.710;2024-03-07T01:51:02;6.30;99.90
10123;DHT22;5101;49.038;8.710;2024-03-07T01:53:31;6.30;99.90
10123;DHT22;5101;49.038;8.710;2024-03-07T01:55:59;6.30;99.90
10123;DHT22;5101;49.038;8.710;2024-03-07T01:58:25;6.20;99.90
10123;DHT22;5101;49.038;8.710;2024-03-07T02:00:51;6.20;99.90
10123;DHT22;5101;49.038;8.710;2024-03-07T02:03:16;6.10;99.90
10123;DHT22;5101;49.038;8.710;2024-03-07T02:05:42;6.20;99.90
10123;DHT22;5101;49.038;8.710;2024-03-07T02:08:08;6.10;99.90
10123;DHT22;5101;49.038;8.710;2024-03-07T02:10:33;6.10;99.90
10123;DHT22;5101;49.038;8.710;2024-03-07T02:12:59;6.10;99.90
10123;DHT22;5101;49.038;8.710;2024-03-07T02:15:26;6.10;99.90
10123;DHT22;5101;49.038;8.710;2024-03-07T02:17:52;6.10;99.90
10123;DHT22;5101;49.038;8.710;2024-03-07T02:20:17;6.10;99.90
10123;DHT22;5101;49.038;8.710;2024-03-07T02:22:43;6.00;99.90
10123;DHT22;5101;49.038;8.710;2024-03-07T02:25:08;6.00;99.90
10123;DHT22;5101;49.038;8.710;2024-03-07T02:27:37;5.90;99.90
10123;DHT22;5101;49.038;8.710;2024-03-07T02:30:04;5.90;99.90
10123;DHT22;5101;49.038;8.710;2024-03-07T02:32:31;5.80;99.90
10123;DHT22;5101;49.038;8.710;2024-03-07T02:34:57;5.80;99.90
10123;DHT22;5101;49.038;8.710;2024-03-07T02:37:23;5.80;99.90
10123;DHT22;5101;49.038;8.710;2024-03-07T02:39:49;5.80;99.90
10123;DHT22;5101;49.038;8.710;2024-03-07T02:42:14;5.80;99.90
10123;DHT22;5101;49.038;8.710;2024-03-07T02:44:40;5.80;99.90
10123;DHT22;5101;49.038;8.710;2024-03-07T02:47:06;5.80;99.90
10123;DHT22;5101;49.038;8.710;2024-03-07T02:49:32;5.70;99.90
10123;DHT22;5101;49.038;8.710;2024-03-07T02:51:57;5.70;99.90
10123;DHT22;5101;49.038;8.710;2024-03-07T02:54:22;5.70;99.90
10123;DHT22;5101;49.038;8.710;2024-03-07T02:56:48;5.70;99.90
10123;DHT22;5101;49.038;8.710;2024-03-07T02:59:13;5.60;99.90
10123;DHT22;5101;49.038;8.710;2024-03-07T03:01:39;5.60;99.90
10123;DHT22;5101;49.038;8.710;2024-03-07T03:04:05;5.50;99.90
10123;DHT22;5101;49.038;8.710;2024-03-07T03:06:30;5.60;99.90
10123;DHT22;5101;49.038;8.710;2024-03-07T03:08:56;5.50;99.90
10123;DHT22;5101;49.038;8.710;2024-03-07T03:11:22;5.40;99.90
10123;DHT22;5101;49.038;8.710;2024-03-07T03:13:47;5.40;99.90
10123;DHT22;5101;49.038;8.710;2024-03-07T03:16:14;5.50;99.90
10123;DHT22;5101;49.038;8.710;2024-03-07T03:18:39;5.30;99.90
10123;DHT22;5101;49.038;8.710;2024-03-07T03:21:05;5.30;99.90
10123;DHT22;5101;49.038;8.710;2024-03-07T03:23:30;5.30;99.90
10123;DHT22;5101;49.038;8.710;2024-03-07T03:25:56;5.20;99.90
10123;DHT22;5101;49.038;8.710;2024-03-07T03:28:22;5.20;99.90
10123;DHT22;5101;49.038;8.710;2024-03-07T03:30:49;5.20;99.90
10123;DHT22;5101;49.038;8.710;2024-03-07T03:33:16;5.10;99.90
10123;DHT22;5101;49.038;8.710;2024-03-07T03:35:42;5.10;99.90
10123;DHT22;5101;49.038;8.710;2024-03-07T03:38:07;5.10;99.90
10123;DHT22;5101;49.038;8.710;2024-03-07T03:40:33;5.10;99.90
10123;DHT22;5101;49.038;8.710;2024-03-07T03:43:00;5.00;99.90
10123;DHT22;5101;49.038;8.710;2024-03-07T03:45:26;5.10;99.90
10123;DHT22;5101;49.038;8.710;2024-03-07T03:47:52;4.90;99.90
10123;DHT22;5101;49.038;8.710;2024-03-07T03:50:17;4.90;99.90
10123;DHT22;5101;49.038;8.710;2024-03-07T03:52:44;4.90;99.90
10123;DHT22;5101;49.038;8.710;2024-03-07T03:55:09;4.90;99.90
10123;DHT22;5101;49.038;8.710;2024-03-07T03:57:35;4.80;99.90
10123;DHT22;5101;49.038;8.710;2024-03-07T04:00:02;4.80;99.90
10123;DHT22;5101;49.038;8.710;2024-03-07T04:02:35;4.80;99.90
10123;DHT22;5101;49.038;8.710;2024-03-07T04:05:03;4.70;99.90
10123;DHT22;5101;49.038;8.710;2024-03-07T04:07:29;4.70;99.90
10123;DHT22;5101;49.038;8.710;2024-03-07T04:09:56;4.60;99.90
10123;DHT22;5101;49.038;8.710;2024-03-07T04:12:22;4.60;99.90
10123;DHT22;5101;49.038;8.710;2024-03-07T04:14:48;4.60;99.90
10123;DHT22;5101;49.038;8.710;2024-03-07T04:17:13;4.60;99.90
10123;DHT22;5101;49.038;8.710;2024-03-07T04:19:42;4.60;99.90
10123;DHT22;5101;49.038;8.710;2024-03-07T04:22:08;4.50;99.90
10123;DHT22;5101;49.038;8.710;2024-03-07T04:24:35;4.50;99.90
10123;DHT22;5101;49.038;8.710;2024-03-07T04:27:01;4.40;99.90
10123;DHT22;5101;49.038;8.710;2024-03-07T04:29:30;4.40;99.90
10123;DHT22;5101;49.038;8.710;2024-03-07T04:31:55;4.40;99.90
10123;DHT22;5101;49.038;8.710;2024-03-07T04:34:21;4.20;99.90
10123;DHT22;5101;49.038;8.710;2024-03-07T04:36:47;4.20;99.90
10123;DHT22;5101;49.038;8.710;2024-03-07T04:39:12;4.10;99.90
10123;DHT22;5101;49.038;8.710;2024-03-07T04:41:51;4.00;99.90
10123;DHT22;5101;49.038;8.710;2024-03-07T04:44:18;4.10;99.90
10123;DHT22;5101;49.038;8.710;2024-03-07T04:46:44;3.90;99.90
10123;DHT22;5101;49.038;8.710;2024-03-07T04:49:10;3.90;99.90
10123;DHT22;5101;49.038;8.710;2024-03-07T04:51:36;3.90;99.90
10123;DHT22;5101;49.038;8.710;2024-03-07T04:54:01;4.00;99.90
10123;DHT22;5101;49.038;8.710;2024-03-07T04:56:26;3.90;99.90
10123;DHT22;5101;49.038;8.710;2024-03-07T04:58:52;3.80;99.90
10123;DHT22;5101;49.038;8.710;2024-03-07T05:01:20;3.80;99.90
10123;DHT22;5101;49.038;8.710;2024-03-07T05:03:45;3.80;99.90
10123;DHT22;5101;49.038;8.710;2024-03-07T05:06:11;3.80;99.90
10123;DHT22;5101;49.038;8.710;2024-03-07T05:08:36;3.70;99.90
10123;DHT22;5101;49.038;8.710;2024-03-07T05:11:02;3.70;99.90
10123;DHT22;5101;49.038;8.710;2024-03-07T05:13:27;3.70;99.90
10123;DHT22;5101;49.038;8.710;2024-03-07T05:15:53;3.70;99.90
10123;DHT22;5101;49.038;8.710;2024-03-07T05:18:18;3.70;99.90
10123;DHT22;5101;49.038;8.710;2024-03-07T05:20:44;3.70;99.90
10123;DHT22;5101;49.038;8.710;2024-03-07T05:23:09;3.70;99.90
10123;DHT22;5101;49.038;8.710;2024-03-07T05:25:36;3.80;99.90
10123;DHT22;5101;49.038;8.710;2024-03-07T05:28:01;3.80;99.90
10123;DHT22;5101;49.038;8.710;2024-03-07T05:30:27;3.80;99.90
10123;DHT22;5101;49.038;8.710;2024-03-07T05:32:53;3.70;99.90
10123;DHT22;5101;49.038;8.710;2024-03-07T05:35:19;3.80;99.90
10123;DHT22;5101;49.038;8.710;2024-03-07T05:37:45;3.80;99.90
10123;DHT22;5101;49.038;8.710;2024-03-07T05:40:12;3.80;99.90
10123;DHT22;5101;49.038;8.710;2024-03-07T05:42:38;3.80;99.90
10123;DHT22;5101;49.038;8.710;2024-03-07T05:45:04;3.80;99.90
10123;DHT22;5101;49.038;8.710;2024-03-07T05:47:33;3.70;99.90
10123;DHT22;5101;49.038;8.710;2024-03-07T05:49:58;3.80;99.90
10123;DHT22;5101;49.038;8.710;2024-03-07T05:52:24;3.80;99.90
10123;DHT22;5101;49.038;8.710;2024-03-07T05:54:49;3.80;99.90
10123;DHT22;5101;49.038;8.710;2024-03-07T05:57:15;3.80;99.90
10123;DHT22;5101;49.038;8.710;2024-03-07T05:59:40;3.90;99.90
10123;DHT22;5101;49.038;8.710;2024-03-07T06:02:06;3.80;99.90
10123;DHT22;5101;49.038;8.710;2024-03-07T06:04:31;3.90;99.90
10123;DHT22;5101;49.038;8.710;2024-03-07T06:06:58;3.80;99.90
10123;DHT22;5101;49.038;8.710;2024-03-07T06:09:23;3.80;99.90
10123;DHT22;5101;49.038;8.710;2024-03-07T06:11:49;3.80;99.90
10123;DHT22;5101;49.038;8.710;2024-03-07T06:14:15;3.80;99.90
10123;DHT22;5101;49.038;8.710;2024-03-07T06:16:42;3.80;99.90
10123;DHT22;5101;49.038;8.710;2024-03-07T06:19:08;3.80;99.90
10123;DHT22;5101;49.038;8.710;2024-03-07T06:21:37;3.80;99.90
10123;DHT22;5101;49.038;8.710;2024-03-07T06:24:04;3.80;99.90
10123;DHT22;5101;49.038;8.710;2024-03-07T06:26:32;3.80;99.90
10123;DHT22;5101;49.038;8.710;2024-03-07T06:29:09;3.80;99.90
10123;DHT22;5101;49.038;8.710;2024-03-07T06:31:37;3.80;99.90
10123;DHT22;5101;49.038;8.710;2024-03-07T06:34:03;3.80;99.90
10123;DHT22;5101;49.038;8.710;2024-03-07T06:36:28;3.80;99.90
10123;DHT22;5101;49.038;8.710;2024-03-07T06:38:54;3.80;99.90
10123;DHT22;5101;49.038;8.710;2024-03-07T06:41:19;3.80;99.90
10123;DHT22;5101;49.038;8.710;2024-03-07T06:43:45;3.80;99.90
10123;DHT22;5101;49.038;8.710;2024-03-07T06:46:11;3.80;99.90
10123;DHT22;5101;49.038;8.710;2024-03-07T06:48:38;3.90;99.90
10123;DHT22;5101;49.038;8.710;2024-03-07T06:51:05;3.90;99.90
10123;DHT22;5101;49.038;8.710;2024-03-07T06:53:31;4.10;99.90
10123;DHT22;5101;49.038;8.710;2024-03-07T06:55:56;4.10;99.90
10123;DHT22;5101;49.038;8.710;2024-03-07T06:58:22;4.00;99.90
10123;DHT22;5101;49.038;8.710;2024-03-07T07:00:48;4.20;99.90
10123;DHT22;5101;49.038;8.710;2024-03-07T07:03:20;4.10;99.90
10123;DHT22;5101;49.038;8.710;2024-03-07T07:05:46;4.20;99.90
10123;DHT22;5101;49.038;8.710;2024-03-07T07:08:12;4.20;99.90
10123;DHT22;5101;49.038;8.710;2024-03-07T07:10:39;4.30;99.90
10123;DHT22;5101;49.038;8.710;2024-03-07T07:13:09;4.30;99.90
10123;DHT22;5101;49.038;8.710;2024-03-07T07:15:36;4.40;99.90
10123;DHT22;5101;49.038;8.710;2024-03-07T07:18:02;4.50;99.90
10123;DHT22;5101;49.038;8.710;2024-03-07T07:20:28;4.50;99.90
10123;DHT22;5101;49.038;8.710;2024-03-07T07:22:54;4.60;99.90
10123;DHT22;5101;49.038;8.710;2024-03-07T07:25:20;4.60;99.90
10123;DHT22;5101;49.038;8.710;2024-03-07T07:27:48;4.70;99.90
10123;DHT22;5101;49.038;8.710;2024-03-07T07:30:15;4.80;99.90
10123;DHT22;5101;49.038;8.710;2024-03-07T07:32:42;4.80;99.90
10123;DHT22;5101;49.038;8.710;2024-03-07T07:35:08;5.00;99.90
10123;DHT22;5101;49.038;8.710;2024-03-07T07:37:50;5.00;99.90
10123;DHT22;5101;49.038;8.710;2024-03-07T07:40:18;5.10;99.90
10123;DHT22;5101;49.038;8.710;2024-03-07T07:42:45;5.40;99.90
10123;DHT22;5101;49.038;8.710;2024-03-07T07:45:12;5.70;99.90
10123;DHT22;5101;49.038;8.710;2024-03-07T07:47:43;5.80;99.90
10123;DHT22;5101;49.038;8.710;2024-03-07T07:50:10;6.10;99.90
10123;DHT22;5101;49.038;8.710;2024-03-07T07:52:49;6.60;99.90
10123;DHT22;5101;49.038;8.710;2024-03-07T07:55:28;6.90;99.90
10123;DHT22;5101;49.038;8.710;2024-03-07T07:57:56;7.10;99.90
10123;DHT22;5101;49.038;8.710;2024-03-07T08:00:23;7.40;99.90
10123;DHT22;5101;49.038;8.710;2024-03-07T08:02:56;7.70;99.90
10123;DHT22;5101;49.038;8.710;2024-03-07T08:05:27;8.00;99.90
10123;DHT22;5101;49.038;8.710;2024-03-07T08:07:54;8.10;99.90
10123;DHT22;5101;49.038;8.710;2024-03-07T08:10:21;7.80;99.20
10123;DHT22;5101;49.038;8.710;2024-03-07T08:12:48;7.80;98.60
10123;DHT22;5101;49.038;8.710;2024-03-07T08:15:14;7.60;97.60
10123;DHT22;5101;49.038;8.710;2024-03-07T08:20:09;7.70;96.80
10123;DHT22;5101;49.038;8.710;2024-03-07T08:22:37;7.80;96.40
10123;DHT22;5101;49.038;8.710;2024-03-07T08:25:03;7.80;96.10
10123;DHT22;5101;49.038;8.710;2024-03-07T08:27:37;8.00;95.90
10123;DHT22;5101;49.038;8.710;2024-03-07T08:30:04;7.90;95.80
10123;DHT22;5101;49.038;8.710;2024-03-07T08:32:34;7.90;95.90
10123;DHT22;5101;49.038;8.710;2024-03-07T08:35:05;7.90;95.80
10123;DHT22;5101;49.038;8.710;2024-03-07T08:37:55;7.80;95.70
10123;DHT22;5101;49.038;8.710;2024-03-07T08:40:24;7.70;95.80
10123;DHT22;5101;49.038;8.710;2024-03-07T08:42:51;7.60;95.80
10123;DHT22;5101;49.038;8.710;2024-03-07T08:45:17;7.70;95.90
10123;DHT22;5101;49.038;8.710;2024-03-07T08:47:45;7.50;95.70
10123;DHT22;5101;49.038;8.710;2024-03-07T08:50:11;7.40;95.80
10123;DHT22;5101;49.038;8.710;2024-03-07T08:52:38;7.30;95.90
10123;DHT22;5101;49.038;8.710;2024-03-07T08:55:06;7.20;96.00
10123;DHT22;5101;49.038;8.710;2024-03-07T08:57:31;7.10;95.90
10123;DHT22;5101;49.038;8.710;2024-03-07T08:59:57;7.20;96.00
10123;DHT22;5101;49.038;8.710;2024-03-07T09:02:23;7.30;95.90
10123;DHT22;5101;49.038;8.710;2024-03-07T09:04:49;7.50;95.80
10123;DHT22;5101;49.038;8.710;2024-03-07T09:07:15;7.60;95.50
10123;DHT22;5101;49.038;8.710;2024-03-07T09:09:41;7.80;95.40
10123;DHT22;5101;49.038;8.710;2024-03-07T09:12:11;8.10;95.20
10123;DHT22;5101;49.038;8.710;2024-03-07T09:14:37;8.60;95.10
10123;DHT22;5101;49.038;8.710;2024-03-07T09:17:03;8.70;93.90
10123;DHT22;5101;49.038;8.710;2024-03-07T09:19:30;8.80;93.30
10123;DHT22;5101;49.038;8.710;2024-03-07T09:21:56;9.10;93.00
10123;DHT22;5101;49.038;8.710;2024-03-07T09:24:21;9.20;91.70
10123;DHT22;5101;49.038;8.710;2024-03-07T09:26:50;9.00;90.70
10123;DHT22;5101;49.038;8.710;2024-03-07T09:29:17;8.80;90.70
10123;DHT22;5101;49.038;8.710;2024-03-07T09:31:44;9.20;90.90
10123;DHT22;5101;49.038;8.710;2024-03-07T09:34:09;9.70;90.20
10123;DHT22;5101;49.038;8.710;2024-03-07T09:36:35;10.00;88.60
10123;DHT22;5101;49.038;8.710;2024-03-07T09:39:00;10.20;86.40
10123;DHT22;5101;49.038;8.710;2024-03-07T09:41:26;10.60;86.00
10123;DHT22;5101;49.038;8.710;2024-03-07T09:43:52;11.00;84.50
10123;DHT22;5101;49.038;8.710;2024-03-07T09:46:22;11.30;82.30
10123;DHT22;5101;49.038;8.710;2024-03-07T09:48:49;11.60;81.60
10123;DHT22;5101;49.038;8.710;2024-03-07T09:51:22;12.10;80.00
10123;DHT22;5101;49.038;8.710;2024-03-07T09:53:49;12.50;78.30
10123;DHT22;5101;49.038;8.710;2024-03-07T09:56:19;12.80;77.60
10123;DHT22;5101;49.038;8.710;2024-03-07T09:58:49;13.10;77.10
10123;DHT22;5101;49.038;8.710;2024-03-07T10:01:17;12.90;75.60
10123;DHT22;5101;49.038;8.710;2024-03-07T10:03:47;13.00;74.30
10123;DHT22;5101;49.038;8.710;2024-03-07T10:06:14;13.10;73.50
10123;DHT22;5101;49.038;8.710;2024-03-07T10:08:41;13.00;73.40
10123;DHT22;5101;49.038;8.710;2024-03-07T10:11:07;13.00;73.50
10123;DHT22;5101;49.038;8.710;2024-03-07T10:13:36;12.80;73.40
10123;DHT22;5101;49.038;8.710;2024-03-07T10:16:02;12.30;73.70
10123;DHT22;5101;49.038;8.710;2024-03-07T10:18:31;12.00;74.80
10123;DHT22;5101;49.038;8.710;2024-03-07T10:20:57;11.60;75.60
10123;DHT22;5101;49.038;8.710;2024-03-07T10:23:23;11.20;76.50
10123;DHT22;5101;49.038;8.710;2024-03-07T10:25:51;11.20;77.30
10123;DHT22;5101;49.038;8.710;2024-03-07T10:28:19;11.30;77.80
10123;DHT22;5101;49.038;8.710;2024-03-07T10:30:46;11.10;78.30
10123;DHT22;5101;49.038;8.710;2024-03-07T10:33:13;10.90;78.90
10123;DHT22;5101;49.038;8.710;2024-03-07T10:35:38;10.90;79.30
10123;DHT22;5101;49.038;8.710;2024-03-07T10:38:04;11.10;79.60
10123;DHT22;5101;49.038;8.710;2024-03-07T10:40:33;11.10;78.50
10123;DHT22;5101;49.038;8.710;2024-03-07T10:43:01;10.80;79.50
10123;DHT22;5101;49.038;8.710;2024-03-07T10:45:41;10.90;79.30
10123;DHT22;5101;49.038;8.710;2024-03-07T10:48:11;10.80;78.70
10123;DHT22;5101;49.038;8.710;2024-03-07T10:53:32;10.90;79.30
10123;DHT22;5101;49.038;8.710;2024-03-07T10:56:17;11.30;78.70
10123;DHT22;5101;49.038;8.710;2024-03-07T11:01:23;12.00;78.20
10123;DHT22;5101;49.038;8.710;2024-03-07T11:03:51;12.20;77.30
10123;DHT22;5101;49.038;8.710;2024-03-07T11:06:18;12.40;76.40
10123;DHT22;5101;49.038;8.710;2024-03-07T11:08:44;12.60;75.80
10123;DHT22;5101;49.038;8.710;2024-03-07T11:11:11;12.60;75.30
10123;DHT22;5101;49.038;8.710;2024-03-07T11:13:38;12.50;75.50
10123;DHT22;5101;49.038;8.710;2024-03-07T11:16:05;12.50;75.90
10123;DHT22;5101;49.038;8.710;2024-03-07T11:18:31;12.60;76.20
10123;DHT22;5101;49.038;8.710;2024-03-07T11:20:56;12.70;75.80
10123;DHT22;5101;49.038;8.710;2024-03-07T11:23:27;12.80;75.70
10123;DHT22;5101;49.038;8.710;2024-03-07T11:26:05;12.80;75.30
10123;DHT22;5101;49.038;8.710;2024-03-07T11:28:35;12.70;76.00
10123;DHT22;5101;49.038;8.710;2024-03-07T11:31:09;12.70;75.80
10123;DHT22;5101;49.038;8.710;2024-03-07T11:33:38;12.60;75.00
10123;DHT22;5101;49.038;8.710;2024-03-07T11:36:09;12.70;75.00
10123;DHT22;5101;49.038;8.710;2024-03-07T11:38:58;12.80;74.90
10123;DHT22;5101;49.038;8.710;2024-03-07T11:41:23;12.80;74.60
10123;DHT22;5101;49.038;8.710;2024-03-07T11:43:49;12.80;74.40
10123;DHT22;5101;49.038;8.710;2024-03-07T11:46:17;12.90;73.80
10123;DHT22;5101;49.038;8.710;2024-03-07T11:48:43;12.80;73.10
10123;DHT22;5101;49.038;8.710;2024-03-07T11:51:17;12.80;73.50
10123;DHT22;5101;49.038;8.710;2024-03-07T11:53:43;12.70;73.10
10123;DHT22;5101;49.038;8.710;2024-03-07T11:56:08;12.50;73.30
10123;DHT22;5101;49.038;8.710;2024-03-07T11:58:41;12.40;73.40
10123;DHT22;5101;49.038;8.710;2024-03-07T12:01:09;12.30;73.40
10123;DHT22;5101;49.038;8.710;2024-03-07T12:03:36;12.10;73.80
10123;DHT22;5101;49.038;8.710;2024-03-07T12:06:03;11.90;73.90
10123;DHT22;5101;49.038;8.710;2024-03-07T12:08:28;11.60;74.50
10123;DHT22;5101;49.038;8.710;2024-03-07T12:10:55;11.50;75.40
10123;DHT22;5101;49.038;8.710;2024-03-07T12:13:22;11.40;75.40
10123;DHT22;5101;49.038;8.710;2024-03-07T12:15:48;11.30;76.30
10123;DHT22;5101;49.038;8.710;2024-03-07T12:18:17;11.30;76.20
10123;DHT22;5101;49.038;8.710;2024-03-07T12:20:44;11.40;76.40
10123;DHT22;5101;49.038;8.710;2024-03-07T12:23:19;11.50;76.60
10123;DHT22;5101;49.038;8.710;2024-03-07T12:25:45;11.60;76.40
10123;DHT22;5101;49.038;8.710;2024-03-07T12:28:12;11.60;76.30
10123;DHT22;5101;49.038;8.710;2024-03-07T12:30:49;11.60;76.40
10123;DHT22;5101;49.038;8.710;2024-03-07T12:33:16;11.20;76.10
10123;DHT22;5101;49.038;8.710;2024-03-07T12:35:52;11.00;77.10
10123;DHT22;5101;49.038;8.710;2024-03-07T12:38:20;10.90;77.20
10123;DHT22;5101;49.038;8.710;2024-03-07T12:41:04;10.90;77.60
10123;DHT22;5101;49.038;8.710;2024-03-07T12:43:32;11.00;77.90
10123;DHT22;5101;49.038;8.710;2024-03-07T12:45:58;11.00;78.00
10123;DHT22;5101;49.038;8.710;2024-03-07T12:48:24;10.90;77.80
10123;DHT22;5101;49.038;8.710;2024-03-07T12:50:50;10.90;77.90
10123;DHT22;5101;49.038;8.710;2024-03-07T12:53:25;11.00;78.00
10123;DHT22;5101;49.038;8.710;2024-03-07T12:55:51;11.20;78.30
10123;DHT22;5101;49.038;8.710;2024-03-07T12:58:17;11.20;78.10
10123;DHT22;5101;49.038;8.710;2024-03-07T13:00:45;11.20;78.10
10123;DHT22;5101;49.038;8.710;2024-03-07T13:03:11;11.30;78.20
10123;DHT22;5101;49.038;8.710;2024-03-07T13:05:39;11.20;78.00
10123;DHT22;5101;49.038;8.710;2024-03-07T13:08:09;11.10;78.20
10123;DHT22;5101;49.038;8.710;2024-03-07T13:10:39;11.10;78.40
10123;DHT22;5101;49.038;8.710;2024-03-07T13:13:06;11.10;78.70
10123;DHT22;5101;49.038;8.710;2024-03-07T13:15:32;11.00;79.20
10123;DHT22;5101;49.038;8.710;2024-03-07T13:17:57;10.90;79.60
10123;DHT22;5101;49.038;8.710;2024-03-07T13:20:23;10.80;79.60
10123;DHT22;5101;49.038;8.710;2024-03-07T13:22:52;10.90;80.00
10123;DHT22;5101;49.038;8.710;2024-03-07T13:25:22;10.90;80.20
10123;DHT22;5101;49.038;8.710;2024-03-07T13:30:26;11.00;80.70
10123;DHT22;5101;49.038;8.710;2024-03-07T13:32:56;11.00;80.90
10123;DHT22;5101;49.038;8.710;2024-03-07T13:35:23;11.00;81.00
10123;DHT22;5101;49.038;8.710;2024-03-07T13:37:50;10.90;81.20
10123;DHT22;5101;49.038;8.710;2024-03-07T13:40:16;10.90;81.10
10123;DHT22;5101;49.038;8.710;2024-03-07T13:42:51;10.80;81.20
10123;DHT22;5101;49.038;8.710;2024-03-07T13:45:33;10.80;81.50
10123;DHT22;5101;49.038;8.710;2024-03-07T13:48:07;10.90;81.90
10123;DHT22;5101;49.038;8.710;2024-03-07T13:50:34;10.70;81.80
10123;DHT22;5101;49.038;8.710;2024-03-07T13:53:00;10.60;82.00
10123;DHT22;5101;49.038;8.710;2024-03-07T14:01:37;10.70;83.10
10123;DHT22;5101;49.038;8.710;2024-03-07T14:13:20;10.50;82.90
10123;DHT22;5101;49.038;8.710;2024-03-07T14:18:42;10.60;83.30
10123;DHT22;5101;49.038;8.710;2024-03-07T14:24:16;10.50;83.40
10123;DHT22;5101;49.038;8.710;2024-03-07T14:32:17;10.50;83.30
10123;DHT22;5101;49.038;8.710;2024-03-07T14:37:38;10.40;83.60
10123;DHT22;5101;49.038;8.710;2024-03-07T14:40:12;10.40;83.90
10123;DHT22;5101;49.038;8.710;2024-03-07T14:42:46;10.40;84.00
10123;DHT22;5101;49.038;8.710;2024-03-07T14:45:17;10.50;84.10
10123;DHT22;5101;49.038;8.710;2024-03-07T14:47:45;10.30;84.10
10123;DHT22;5101;49.038;8.710;2024-03-07T14:50:12;10.20;84.30
10123;DHT22;5101;49.038;8.710;2024-03-07T14:52:38;10.30;84.40
10123;DHT22;5101;49.038;8.710;2024-03-07T14:55:10;10.40;84.80
10123;DHT22;5101;49.038;8.710;2024-03-07T14:57:39;10.40;85.00
10123;DHT22;5101;49.038;8.710;2024-03-07T15:00:08;10.40;84.70
10123;DHT22;5101;49.038;8.710;2024-03-07T15:02:45;10.40;84.40
10123;DHT22;5101;49.038;8.710;2024-03-07T15:05:11;10.40;84.40
10123;DHT22;5101;49.038;8.710;2024-03-07T15:07:36;10.40;84.40
10123;DHT22;5101;49.038;8.710;2024-03-07T15:10:02;10.40;84.50
10123;DHT22;5101;49.038;8.710;2024-03-07T15:12:31;10.50;84.80
10123;DHT22;5101;49.038;8.710;2024-03-07T15:14:57;10.40;84.80
10123;DHT22;5101;49.038;8.710;2024-03-07T15:17:22;10.40;84.90
10123;DHT22;5101;49.038;8.710;2024-03-07T15:19:49;10.50;85.20
10123;DHT22;5101;49.038;8.710;2024-03-07T15:22:14;10.50;85.20
10123;DHT22;5101;49.038;8.710;2024-03-07T15:24:41;10.50;85.20
10123;DHT22;5101;49.038;8.710;2024-03-07T15:27:08;10.50;85.00
10123;DHT22;5101;49.038;8.710;2024-03-07T15:29:35;10.50;84.90
10123;DHT22;5101;49.038;8.710;2024-03-07T15:32:01;10.40;84.50
10123;DHT22;5101;49.038;8.710;2024-03-07T15:34:28;10.50;84.50
10123;DHT22;5101;49.038;8.710;2024-03-07T15:37:00;10.40;84.30
10123;DHT22;5101;49.038;8.710;2024-03-07T15:39:28;10.40;84.00
10123;DHT22;5101;49.038;8.710;2024-03-07T15:41:55;10.40;84.00
10123;DHT22;5101;49.038;8.710;2024-03-07T15:44:21;10.20;83.60
10123;DHT22;5101;49.038;8.710;2024-03-07T15:46:46;10.20;83.80
10123;DHT22;5101;49.038;8.710;2024-03-07T15:49:12;10.30;83.80
10123;DHT22;5101;49.038;8.710;2024-03-07T15:51:38;10.30;83.80
10123;DHT22;5101;49.038;8.710;2024-03-07T15:54:04;10.20;83.80
10123;DHT22;5101;49.038;8.710;2024-03-07T15:56:30;10.20;83.90
10123;DHT22;5101;49.038;8.710;2024-03-07T15:58:56;10.10;83.70
10123;DHT22;5101;49.038;8.710;2024-03-07T16:01:21;10.10;83.50
10123;DHT22;5101;49.038;8.710;2024-03-07T16:03:47;10.10;83.50
10123;DHT22;5101;49.038;8.710;2024-03-07T16:06:12;10.20;83.70
10123;DHT22;5101;49.038;8.710;2024-03-07T16:08:41;10.20;83.70
10123;DHT22;5101;49.038;8.710;2024-03-07T16:11:07;10.20;83.60
10123;DHT22;5101;49.038;8.710;2024-03-07T16:13:34;10.30;83.30
10123;DHT22;5101;49.038;8.710;2024-03-07T16:16:00;10.30;83.20
10123;DHT22;5101;49.038;8.710;2024-03-07T16:18:30;10.30;83.20
10123;DHT22;5101;49.038;8.710;2024-03-07T16:20:55;10.30;83.20
10123;DHT22;5101;49.038;8.710;2024-03-07T16:23:23;10.30;83.10
10123;DHT22;5101;49.038;8.710;2024-03-07T16:25:48;10.20;82.90
10123;DHT22;5101;49.038;8.710;2024-03-07T16:28:14;10.20;82.90
10123;DHT22;5101;49.038;8.710;2024-03-07T16:30:42;10.20;82.80
10123;DHT22;5101;49.038;8.710;2024-03-07T16:33:12;10.20;82.80
10123;DHT22;5101;49.038;8.710;2024-03-07T16:35:37;10.20;82.90